Rockford, Nebraska
Current Conditions -  °F | °C
As of 8:15 AM on Monday 26 Jan 2015 (Local Time) from KBIE Reporting Station
Clear Clear  
Wind Chill: 23°   Ceiling: Unl
Heat Index: 31°   Visibility: 10mi
Dew Point: 28°   Wind: 9mph
Humidity: 87%   Direction: 240°WSW
Pressure: 29.93"   Gusts: NA
Location:  40.2674°N, 96.7699°W
Report Text: KBIE 261415Z AUTO 24008KT 10SM CLR 00/M02 A2993 RMK AO2 T10051024
Loading
Personal Weather Stations






























Interactive Weather Map New forecast layout! Learn more

10-Day Weather Forecast

Advertisements
Track Severe Weather on mobile